Time;durP1;ratioP1;P1;durP2;ratioP2;P2;SDS_P1;SDS_P2;PMS_P1;PMS_P2;Temp;Humidity;BMP_temperature;BMP_pressure;BME280_temperature;BME280_humidity;BME280_pressure;Samples;Min_cycle;Max_cycle;Signal;HPM_P1;HPM_P2
2022/12/17 13:06:44;;;;;;;97.77;47.73;;;1.20;99.90;;;;;;5066405;28;20035;-73
2022/12/17 13:09:14;;;;;;;86.40;43.73;;;1.10;99.90;;;;;;5069128;28;20407;-73
2022/12/17 13:11:45;;;;;;;81.87;43.57;;;1.10;99.90;;;;;;5066229;28;20036;-73
2022/12/17 13:14:19;;;;;;;83.00;43.83;;;1.10;99.90;;;;;;5085827;28;20043;-73
2022/12/17 13:16:45;;;;;;;80.50;41.53;;;1.10;99.90;;;;;;5080391;28;20036;-72
2022/12/17 13:19:30;;;;;;;80.23;40.80;;;1.10;99.90;;;;;;5082575;28;20051;-73
2022/12/17 13:22:14;;;;;;;88.17;43.40;;;1.10;99.90;;;;;;5085346;28;20463;-73
2022/12/17 13:24:43;;;;;;;85.13;43.90;;;1.00;99.90;;;;;;5085534;28;20391;-73
2022/12/17 13:27:45;;;;;;;84.00;43.77;;;1.00;99.90;;;;;;5079572;28;20040;-73
2022/12/17 13:30:17;;;;;;;82.43;41.97;;;1.00;99.90;;;;;;5026659;28;20045;-73
2022/12/17 13:33:07;;;;;;;89.32;45.15;;;1.00;99.90;;;;;;5042506;28;20032;-73
2022/12/17 13:35:57;;;;;;;81.90;41.30;;;1.00;99.90;;;;;;5068053;28;20036;-72
2022/12/17 13:38:47;;;;;;;81.57;40.90;;;1.00;99.90;;;;;;5079117;28;20395;-73
2022/12/17 13:41:34;;;;;;;85.97;43.07;;;0.90;99.90;;;;;;5083784;28;20395;-73
2022/12/17 13:44:14;;;;;;;84.63;41.33;;;1.00;99.90;;;;;;5067371;28;20031;-73
2022/12/17 13:46:43;;;;;;;77.90;38.07;;;0.90;99.90;;;;;;5076746;28;20040;-72
2022/12/17 13:49:25;;;;;;;82.97;41.77;;;0.90;99.90;;;;;;5065854;28;20411;-73
2022/12/17 13:52:17;;;;;;;85.82;43.05;;;0.80;99.90;;;;;;5083082;28;20043;-73
2022/12/17 13:54:44;;;;;;;88.07;43.97;;;0.80;99.90;;;;;;5066627;28;20039;-73
2022/12/17 13:57:17;;;;;;;72.13;36.47;;;0.80;99.90;;;;;;5060082;28;20047;-72
2022/12/17 13:59:54;;;;;;;79.90;39.67;;;0.90;99.90;;;;;;5066662;28;20028;-73
2022/12/17 14:02:23;;;;;;;88.87;42.73;;;0.80;99.90;;;;;;5102499;28;20039;-72
2022/12/17 14:04:54;;;;;;;85.80;41.73;;;0.80;99.90;;;;;;5086499;28;20036;-73
2022/12/17 14:07:22;;;;;;;90.23;44.57;;;0.80;99.90;;;;;;5077746;28;20055;-73
2022/12/17 14:09:48;;;;;;;89.73;42.00;;;0.80;99.90;;;;;;5101605;28;20036;-72
2022/12/17 14:12:20;;;;;;;87.10;42.00;;;0.80;99.90;;;;;;5068296;28;20044;-72
2022/12/17 14:15:15;;;;;;;76.47;38.80;;;0.80;99.90;;;;;;5067631;28;20032;-73
2022/12/17 14:17:48;;;;;;;82.07;40.70;;;0.80;99.90;;;;;;5078917;28;20027;-72
2022/12/17 14:20:19;;;;;;;83.80;41.30;;;0.80;99.90;;;;;;5068082;28;20040;-73
2022/12/17 14:22:51;;;;;;;84.33;40.47;;;0.80;99.90;;;;;;5067718;28;20039;-72
2022/12/17 14:25:19;;;;;;;82.65;41.33;;;0.80;99.90;;;;;;5086092;28;20507;-73
2022/12/17 14:27:53;;;;;;;78.27;38.63;;;0.70;99.90;;;;;;5060141;28;20024;-73
2022/12/17 14:30:40;;;;;;;92.80;43.23;;;0.70;99.90;;;;;;5084419;28;20048;-73
2022/12/17 14:33:25;;;;;;;79.37;38.57;;;0.60;99.90;;;;;;5084236;28;20422;-72
2022/12/17 14:35:53;;;;;;;74.20;35.90;;;0.60;99.90;;;;;;5067887;28;20094;-72
2022/12/17 14:38:20;;;;;;;83.47;38.63;;;0.60;99.90;;;;;;5058843;28;20040;-73
2022/12/17 14:40:47;;;;;;;77.70;38.07;;;0.60;99.90;;;;;;5082680;28;20054;-73
2022/12/17 14:43:14;;;;;;;70.90;36.60;;;0.50;99.90;;;;;;5084065;28;20285;-72
2022/12/17 14:49:00;;;;;;;76.47;37.77;;;0.40;99.90;;;;;;5077518;28;20036;-72
2022/12/17 14:51:39;;;;;;;85.80;40.20;;;0.40;99.90;;;;;;5065739;28;20055;-73
2022/12/17 14:54:27;;;;;;;71.50;34.30;;;0.40;99.90;;;;;;5082575;28;20035;-73
2022/12/17 14:56:56;;;;;;;70.93;34.50;;;0.40;99.90;;;;;;5042844;28;20055;-73
2022/12/17 14:59:30;;;;;;;74.53;37.67;;;0.40;99.90;;;;;;5066735;28;20487;-73
2022/12/17 15:01:58;;;;;;;75.23;36.57;;;0.40;99.90;;;;;;5075699;28;20043;-73
2022/12/17 15:04:25;;;;;;;73.37;36.63;;;0.40;99.90;;;;;;5083688;28;20658;-73
2022/12/17 15:06:54;;;;;;;77.63;39.00;;;0.40;99.90;;;;;;5077160;28;20082;-72
2022/12/17 15:09:21;;;;;;;73.80;36.17;;;0.40;99.90;;;;;;5083951;28;20050;-73
2022/12/17 15:11:48;;;;;;;78.53;38.93;;;0.40;99.90;;;;;;5084385;28;20040;-72
2022/12/17 15:14:14;;;;;;;86.20;42.23;;;0.30;99.90;;;;;;5083676;28;20040;-72
2022/12/17 15:16:40;;;;;;;86.73;43.70;;;0.30;99.90;;;;;;5078377;28;20066;-72
2022/12/17 15:19:07;;;;;;;81.77;39.10;;;0.30;99.90;;;;;;5083014;28;20044;-73
2022/12/17 15:21:33;;;;;;;80.37;38.57;;;0.20;99.90;;;;;;5084279;28;20051;-73
2022/12/17 15:24:00;;;;;;;78.90;37.93;;;0.20;99.90;;;;;;5083982;28;20044;-73
2022/12/17 15:26:26;;;;;;;79.70;39.43;;;0.10;99.90;;;;;;5080943;28;20480;-73
2022/12/17 15:28:54;;;;;;;85.80;42.20;;;0.00;99.90;;;;;;5063590;28;20055;-73
2022/12/17 15:31:20;;;;;;;83.70;42.63;;;-0.10;99.90;;;;;;5083818;28;20348;-73
2022/12/17 15:33:46;;;;;;;84.43;43.13;;;-0.10;99.90;;;;;;5084082;28;20046;-73
2022/12/17 15:36:13;;;;;;;75.43;37.57;;;-0.10;99.90;;;;;;5083338;28;20039;-72
2022/12/17 15:38:39;;;;;;;66.53;34.10;;;-0.10;99.90;;;;;;5077642;28;20402;-73
2022/12/17 15:43:51;;;;;;;84.60;42.43;;;-0.10;99.90;;;;;;5066936;28;20028;-72
2022/12/17 15:46:17;;;;;;;79.97;40.67;;;-0.20;99.90;;;;;;5083154;28;20028;-72
2022/12/17 15:48:43;;;;;;;80.97;41.50;;;-0.20;99.90;;;;;;5046646;28;20036;-72
2022/12/17 15:51:10;;;;;;;72.47;38.03;;;-0.20;99.90;;;;;;5084107;28;20043;-73
2022/12/17 15:53:36;;;;;;;67.13;35.80;;;-0.30;99.90;;;;;;5066881;28;20039;-73
2022/12/17 15:56:03;;;;;;;69.53;38.53;;;-0.30;99.90;;;;;;5066698;28;20036;-72
2022/12/17 15:58:29;;;;;;;81.93;42.23;;;-0.30;99.90;;;;;;5079406;28;20036;-72
2022/12/17 16:00:56;;;;;;;80.13;40.53;;;-0.30;99.90;;;;;;5070444;28;20036;-72
2022/12/17 16:03:22;;;;;;;68.80;35.13;;;-0.20;99.90;;;;;;5087711;28;20043;-72
2022/12/17 16:05:49;;;;;;;77.63;39.17;;;-0.30;99.90;;;;;;5080371;28;20020;-72
2022/12/17 16:08:15;;;;;;;77.20;41.00;;;-0.30;99.90;;;;;;5063324;28;20493;-73
2022/12/17 16:10:42;;;;;;;85.77;45.47;;;-0.40;99.90;;;;;;5087608;28;20027;-72
2022/12/17 16:13:08;;;;;;;79.60;42.23;;;-0.40;99.90;;;;;;5087521;28;20035;-73
2022/12/17 16:15:34;;;;;;;79.83;41.63;;;-0.50;99.90;;;;;;5070696;28;20028;-72
2022/12/17 16:18:01;;;;;;;81.87;42.10;;;-0.50;99.90;;;;;;5080309;28;20035;-72
2022/12/17 16:20:27;;;;;;;73.17;37.87;;;-0.40;99.90;;;;;;5086982;28;20044;-72
2022/12/17 16:22:54;;;;;;;74.60;38.73;;;-0.40;99.90;;;;;;5087475;28;20477;-72
2022/12/17 16:25:20;;;;;;;79.40;39.50;;;-0.50;99.90;;;;;;5070474;28;20039;-71
2022/12/17 16:27:46;;;;;;;68.73;36.30;;;-0.40;99.90;;;;;;5081760;28;20485;-72
2022/12/17 16:30:13;;;;;;;82.37;40.50;;;-0.40;99.90;;;;;;5069498;28;20044;-72
2022/12/17 16:32:39;;;;;;;82.23;40.67;;;-0.40;99.90;;;;;;5069975;28;20479;-72
2022/12/17 16:35:06;;;;;;;78.77;39.37;;;-0.50;99.90;;;;;;5087513;28;20036;-72
2022/12/17 16:37:32;;;;;;;89.43;44.13;;;-0.50;99.90;;;;;;5061987;28;20397;-72
2022/12/17 16:39:58;;;;;;;79.00;41.10;;;-0.50;99.90;;;;;;5065982;28;20584;-72
2022/12/17 16:42:25;;;;;;;76.70;41.70;;;-0.40;99.90;;;;;;5072660;28;20028;-72
2022/12/17 16:44:51;;;;;;;74.97;38.47;;;-0.50;99.90;;;;;;5083539;28;20025;-72
2022/12/17 16:47:17;;;;;;;80.27;39.47;;;-0.50;99.90;;;;;;5078885;28;20043;-72
2022/12/17 16:49:44;;;;;;;72.63;36.77;;;-0.50;99.90;;;;;;5086206;28;20044;-72
2022/12/17 16:52:10;;;;;;;67.03;34.80;;;-0.50;99.90;;;;;;5053089;28;20035;-72
2022/12/17 16:54:36;;;;;;;57.90;30.50;;;-0.50;99.90;;;;;;5086445;28;20027;-72
2022/12/17 16:57:03;;;;;;;71.87;37.10;;;-0.40;99.90;;;;;;5078513;28;20032;-72
2022/12/17 16:59:29;;;;;;;68.67;35.23;;;-0.40;99.90;;;;;;5086063;28;20028;-72
2022/12/17 17:01:56;;;;;;;72.23;37.33;;;-0.40;99.90;;;;;;5068469;28;20388;-72
2022/12/17 17:04:23;;;;;;;83.17;42.40;;;-0.50;99.90;;;;;;5064613;28;20039;-71
2022/12/17 17:06:55;;;;;;;80.27;38.87;;;-0.50;99.90;;;;;;5054748;28;20513;-74
2022/12/17 17:09:22;;;;;;;85.13;41.47;;;-0.60;99.90;;;;;;5068841;28;20510;-73
2022/12/17 17:11:50;;;;;;;78.20;39.03;;;-0.60;99.90;;;;;;5068853;28;20379;-73
2022/12/17 17:14:16;;;;;;;83.37;39.93;;;-0.60;99.90;;;;;;5084532;28;20055;-72
2022/12/17 17:16:43;;;;;;;77.57;37.97;;;-0.60;99.90;;;;;;5078111;28;20040;-73
2022/12/17 17:19:09;;;;;;;89.77;42.47;;;-0.60;99.90;;;;;;5065959;28;20032;-75
2022/12/17 17:21:38;;;;;;;79.47;38.20;;;-0.60;99.90;;;;;;5085386;28;20036;-73
2022/12/17 17:24:14;;;;;;;80.43;40.47;;;-0.60;99.90;;;;;;5086512;28;20114;-73
2022/12/17 17:26:41;;;;;;;75.43;37.83;;;-0.60;99.90;;;;;;5079755;28;20047;-73
2022/12/17 17:29:08;;;;;;;81.83;39.63;;;-0.70;99.90;;;;;;5067046;28;20036;-73
2022/12/17 17:31:36;;;;;;;68.67;33.00;;;-0.70;99.90;;;;;;5064455;28;20528;-73
2022/12/17 17:34:09;;;;;;;79.47;37.90;;;-0.70;99.90;;;;;;5082306;28;20036;-72
2022/12/17 17:36:36;;;;;;;68.10;32.67;;;-0.70;99.90;;;;;;5095748;28;20035;-73
2022/12/17 17:39:02;;;;;;;75.63;34.97;;;-0.80;99.90;;;;;;5082897;28;20047;-72
2022/12/17 17:41:30;;;;;;;73.00;33.83;;;-0.80;99.90;;;;;;5067906;28;20032;-72
2022/12/17 17:44:00;;;;;;;73.20;36.93;;;-0.80;99.90;;;;;;5080515;28;20032;-72
2022/12/17 17:46:28;;;;;;;69.60;35.33;;;-0.80;99.90;;;;;;5062734;28;20024;-72
2022/12/17 17:48:56;;;;;;;73.67;36.87;;;-0.80;99.90;;;;;;5077562;28;20600;-72
2022/12/17 17:51:25;;;;;;;71.30;34.87;;;-0.90;99.90;;;;;;5067725;28;20040;-73
2022/12/17 17:53:53;;;;;;;78.20;37.43;;;-0.90;99.90;;;;;;5080508;28;20036;-72
2022/12/17 17:56:22;;;;;;;68.30;33.63;;;-1.00;99.90;;;;;;5065444;28;20040;-72
2022/12/17 17:58:51;;;;;;;70.50;35.40;;;-1.00;99.90;;;;;;5065510;28;20029;-72
2022/12/17 18:01:25;;;;;;;66.30;31.63;;;-1.00;99.90;;;;;;5067243;28;20035;-73
2022/12/17 18:03:53;;;;;;;73.03;34.77;;;-1.00;99.90;;;;;;5085938;28;20047;-72
2022/12/17 18:06:19;;;;;;;71.73;33.20;;;-1.00;99.90;;;;;;5081747;28;20359;-72
2022/12/17 18:08:46;;;;;;;77.43;37.23;;;-1.00;99.90;;;;;;5059328;28;20044;-72
2022/12/17 18:11:16;;;;;;;67.00;34.03;;;-1.00;99.90;;;;;;5064067;28;20028;-72
2022/12/17 18:13:54;;;;;;;65.13;33.40;;;-1.00;99.90;;;;;;5084265;28;20036;-72
2022/12/17 18:16:39;;;;;;;69.10;32.77;;;-1.00;99.90;;;;;;5074453;28;20044;-73
2022/12/17 18:19:17;;;;;;;65.10;32.37;;;-1.00;99.90;;;;;;5064111;28;20040;-72
2022/12/17 18:21:45;;;;;;;68.80;33.33;;;-1.00;99.90;;;;;;5066148;28;20052;-72
2022/12/17 18:24:14;;;;;;;71.47;35.67;;;-1.00;99.90;;;;;;5066307;28;20039;-72
2022/12/17 18:26:42;;;;;;;80.73;38.20;;;-1.10;99.90;;;;;;5058746;28;20050;-73
2022/12/17 18:29:11;;;;;;;69.17;34.07;;;-1.10;99.90;;;;;;5082414;28;20032;-72
2022/12/17 18:31:38;;;;;;;75.97;40.17;;;-1.10;99.90;;;;;;5062478;28;20783;-72
2022/12/17 18:34:06;;;;;;;73.90;35.57;;;-1.10;99.90;;;;;;5063704;28;20020;-72
2022/12/17 18:36:38;;;;;;;69.70;33.13;;;-1.20;99.90;;;;;;5044005;28;20916;-72
2022/12/17 18:39:05;;;;;;;;;;;-1.20;99.90;;;;;;5083105;28;20043;-73
2022/12/17 18:44:17;;;;;;;69.63;33.80;;;-1.20;99.90;;;;;;5083319;28;20058;-72
2022/12/17 18:46:44;;;;;;;73.37;35.53;;;-1.20;99.90;;;;;;5072540;28;20040;-73
2022/12/17 18:49:14;;;;;;;71.60;34.50;;;-1.20;99.90;;;;;;5063385;28;20032;-72
2022/12/17 18:51:42;;;;;;;64.60;31.43;;;-1.20;99.90;;;;;;5079853;28;20028;-73
2022/12/17 18:54:16;;;;;;;77.30;37.33;;;-1.20;99.90;;;;;;5066337;28;20047;-73
2022/12/17 18:56:43;;;;;;;65.67;31.27;;;-1.10;99.90;;;;;;5078055;28;20031;-72
2022/12/17 18:59:13;;;;;;;64.20;30.87;;;-1.10;99.90;;;;;;5078639;28;20364;-73
2022/12/17 19:01:41;;;;;;;55.97;29.37;;;-1.20;99.90;;;;;;5048458;28;20034;-73
2022/12/17 19:04:09;;;;;;;68.07;34.53;;;-1.20;99.90;;;;;;5067351;28;20047;-72
2022/12/17 19:06:37;;;;;;;65.63;30.90;;;-1.10;99.90;;;;;;5045070;28;20044;-72
2022/12/17 19:09:06;;;;;;;77.57;38.80;;;-1.10;99.90;;;;;;5082429;28;20052;-72
2022/12/17 19:11:34;;;;;;;65.77;31.27;;;-1.10;99.90;;;;;;5084202;28;20043;-73
2022/12/17 19:14:01;;;;;;;66.97;31.53;;;-1.10;99.90;;;;;;5100604;28;20427;-73
2022/12/17 19:16:28;;;;;;;62.83;30.23;;;-1.20;99.90;;;;;;5063293;28;20036;-72
2022/12/17 19:18:58;;;;;;;66.80;32.87;;;-1.20;99.90;;;;;;5081277;28;20075;-72
2022/12/17 19:21:25;;;;;;;60.70;27.97;;;-1.20;99.90;;;;;;5082456;28;20036;-73
2022/12/17 19:23:57;;;;;;;68.63;33.80;;;-1.20;99.90;;;;;;5084127;28;20035;-72
2022/12/17 19:26:24;;;;;;;77.83;35.67;;;-1.20;99.90;;;;;;5080513;28;20378;-73
2022/12/17 19:28:53;;;;;;;62.57;29.93;;;-1.30;99.90;;;;;;5063805;28;20032;-73
2022/12/17 19:31:21;;;;;;;78.10;34.73;;;-1.30;99.90;;;;;;5064638;28;20031;-72
2022/12/17 19:33:48;;;;;;;75.20;35.07;;;-1.30;99.90;;;;;;5069585;28;20040;-73
2022/12/17 19:36:18;;;;;;;75.07;35.40;;;-1.40;99.90;;;;;;5068977;28;20374;-73
2022/12/17 19:38:45;;;;;;;72.90;32.73;;;-1.40;99.90;;;;;;5047774;28;20054;-73
2022/12/17 19:41:13;;;;;;;59.43;26.87;;;-1.50;99.90;;;;;;5069607;28;20035;-73
2022/12/17 19:43:41;;;;;;;72.07;32.77;;;-1.50;99.90;;;;;;5087478;28;20035;-73
2022/12/17 19:46:18;;;;;;;65.57;28.73;;;-1.50;99.90;;;;;;5069640;28;20023;-73
2022/12/17 19:48:46;;;;;;;64.57;28.37;;;-1.50;99.90;;;;;;5064754;28;20047;-73
2022/12/17 19:51:14;;;;;;;62.27;28.10;;;-1.60;99.90;;;;;;5052823;28;20035;-73
2022/12/17 19:53:42;;;;;;;63.43;28.77;;;-1.50;99.90;;;;;;5086489;28;20032;-73
2022/12/17 19:56:23;;;;;;;57.80;26.77;;;-1.60;99.90;;;;;;5087172;28;20378;-73
2022/12/17 19:58:52;;;;;;;71.03;31.23;;;-1.60;99.90;;;;;;5062642;28;20471;-73
2022/12/17 20:01:22;;;;;;;58.97;28.67;;;-1.60;99.90;;;;;;5086213;28;20382;-73
2022/12/17 20:03:49;;;;;;;63.93;26.97;;;-1.60;99.90;;;;;;5084056;28;20028;-73
2022/12/17 20:06:17;;;;;;;69.43;29.63;;;-1.70;99.90;;;;;;5085440;28;20028;-73
2022/12/17 20:08:44;;;;;;;70.77;31.43;;;-1.70;99.90;;;;;;5081657;28;20498;-73
2022/12/17 20:14:07;;;;;;;63.17;26.87;;;-1.60;99.90;;;;;;5086583;28;20064;-73
2022/12/17 20:16:37;;;;;;;71.80;30.60;;;-1.60;99.90;;;;;;5065623;28;20055;-73
2022/12/17 20:19:05;;;;;;;66.57;29.33;;;-1.60;99.90;;;;;;5069993;28;20047;-73
2022/12/17 20:21:32;;;;;;;62.33;28.23;;;-1.60;99.90;;;;;;5088064;28;20047;-73
2022/12/17 20:23:58;;;;;;;55.07;23.90;;;-1.60;99.90;;;;;;5086364;28;20036;-73
2022/12/17 20:26:25;;;;;;;74.50;32.03;;;-1.60;99.90;;;;;;5084309;28;20024;-73
2022/12/17 20:28:53;;;;;;;66.10;28.80;;;-1.70;99.90;;;;;;5067394;28;20110;-73
2022/12/17 20:31:19;;;;;;;72.00;30.70;;;-1.70;99.90;;;;;;5089833;28;20417;-73
2022/12/17 20:33:45;;;;;;;75.73;31.60;;;-1.70;99.90;;;;;;5087882;28;20398;-73
2022/12/17 20:36:15;;;;;;;66.80;30.37;;;-1.70;99.90;;;;;;5087437;28;20024;-73
2022/12/17 20:38:42;;;;;;;66.97;28.23;;;-1.70;99.90;;;;;;5065170;28;20028;-73
2022/12/17 20:41:09;;;;;;;77.13;34.50;;;-1.70;99.90;;;;;;5087767;28;20036;-73
2022/12/17 20:43:36;;;;;;;68.90;28.80;;;-1.80;99.90;;;;;;5086952;28;20032;-73
2022/12/17 20:46:03;;;;;;;66.63;29.27;;;-1.90;99.90;;;;;;5087863;28;20036;-73
2022/12/17 20:48:29;;;;;;;69.97;31.90;;;-2.00;99.90;;;;;;5063624;28;20540;-73
2022/12/17 20:50:56;;;;;;;73.53;29.93;;;-2.00;99.90;;;;;;5088572;28;20044;-73
2022/12/17 20:53:22;;;;;;;89.27;37.77;;;-2.00;99.90;;;;;;5071418;28;20032;-73
2022/12/17 20:55:59;;;;;;;68.57;31.27;;;-2.00;99.90;;;;;;5072400;28;20031;-73
2022/12/17 20:58:25;;;;;;;73.70;30.30;;;-2.00;99.90;;;;;;5081776;28;20378;-73
2022/12/17 21:00:52;;;;;;;68.40;28.73;;;-2.00;99.90;;;;;;5073080;28;20028;-73
2022/12/17 21:03:18;;;;;;;73.00;30.67;;;-2.00;99.90;;;;;;5072874;28;20023;-73
2022/12/17 21:05:44;;;;;;;60.53;25.80;;;-1.90;99.90;;;;;;5069939;28;20505;-73
2022/12/17 21:08:11;;;;;;;76.17;32.60;;;-2.00;99.90;;;;;;5079692;28;20028;-73
2022/12/17 21:10:37;;;;;;;67.63;29.40;;;-1.90;99.90;;;;;;5069081;28;20036;-73
2022/12/17 21:15:49;;;;;;;73.13;28.13;;;-2.10;99.90;;;;;;5067820;28;20039;-73
2022/12/17 21:18:18;;;;;;;78.77;31.97;;;-2.10;99.90;;;;;;5060932;28;20028;-73
2022/12/17 21:20:54;;;;;;;70.10;29.70;;;-2.10;99.90;;;;;;5069889;28;20055;-73
2022/12/17 21:23:21;;;;;;;71.70;31.83;;;-2.00;99.90;;;;;;5088932;28;20028;-73
2022/12/17 21:25:47;;;;;;;68.93;29.70;;;-2.00;99.90;;;;;;5068991;28;20028;-73
2022/12/17 21:28:13;;;;;;;63.00;27.20;;;-2.10;99.90;;;;;;5079374;28;20046;-73
2022/12/17 21:30:40;;;;;;;60.60;25.93;;;-2.10;99.90;;;;;;5086290;28;20043;-73
2022/12/17 21:33:06;;;;;;;63.90;27.73;;;-2.10;99.90;;;;;;5103988;28;20031;-73
2022/12/17 21:35:32;;;;;;;78.13;33.83;;;-2.10;99.90;;;;;;5069382;28;20467;-73
2022/12/17 21:37:59;;;;;;;86.20;38.13;;;-2.20;99.90;;;;;;5079162;28;20024;-73
2022/12/17 21:40:25;;;;;;;69.60;30.63;;;-2.20;99.90;;;;;;5086971;28;20494;-73
2022/12/17 21:43:00;;;;;;;77.57;32.37;;;-2.20;99.90;;;;;;5086556;28;20023;-73
2022/12/17 21:45:34;;;;;;;73.93;31.23;;;-2.30;99.90;;;;;;5087582;28;20382;-73
2022/12/17 21:48:00;;;;;;;81.07;34.90;;;-2.20;99.90;;;;;;5078628;28;20028;-73
2022/12/17 21:50:26;;;;;;;73.70;31.87;;;-2.20;99.90;;;;;;5086765;28;20032;-73
2022/12/17 21:52:53;;;;;;;82.60;32.20;;;-2.20;99.90;;;;;;5086509;28;20048;-73
2022/12/17 21:55:19;;;;;;;88.63;37.30;;;-2.20;99.90;;;;;;5051625;28;20032;-73
2022/12/17 21:57:45;;;;;;;84.37;33.10;;;-2.20;99.90;;;;;;5061611;28;20086;-73
2022/12/17 22:00:12;;;;;;;72.50;29.57;;;-2.20;99.90;;;;;;5087724;28;20020;-74
2022/12/17 22:02:38;;;;;;;76.27;33.00;;;-2.20;99.90;;;;;;5086511;28;20024;-73
2022/12/17 22:05:05;;;;;;;61.90;29.20;;;-2.20;99.90;;;;;;5084689;28;20028;-74
2022/12/17 22:07:32;;;;;;;57.93;26.13;;;-2.10;99.90;;;;;;5078524;28;20036;-73
2022/12/17 22:09:58;;;;;;;72.07;29.73;;;-2.10;99.90;;;;;;5069059;28;20024;-74
2022/12/17 22:15:09;;;;;;;68.97;28.80;;;-2.20;99.90;;;;;;5085439;28;20032;-74
2022/12/17 22:17:37;;;;;;;71.10;30.33;;;-2.20;99.90;;;;;;5061575;28;20387;-73
2022/12/17 22:20:04;;;;;;;70.73;32.03;;;-2.20;99.90;;;;;;5086280;28;20039;-73
2022/12/17 22:22:30;;;;;;;80.00;36.03;;;-2.20;99.90;;;;;;5085386;28;20043;-73
2022/12/17 22:24:57;;;;;;;79.37;35.20;;;-2.20;99.90;;;;;;5068216;28;20032;-73
2022/12/17 22:27:23;;;;;;;73.10;33.10;;;-2.30;99.90;;;;;;5078081;28;20020;-73
2022/12/17 22:35:19;;;;;;;82.17;32.63;;;-1.90;99.90;;;;;;5086948;28;20039;-74
2022/12/17 22:37:45;;;;;;;86.10;35.13;;;-1.80;99.90;;;;;;5077797;28;20372;-74
2022/12/17 22:40:12;;;;;;;76.93;33.07;;;-1.90;99.90;;;;;;5069055;28;20024;-73
2022/12/17 22:45:23;;;;;;;75.60;28.10;;;-2.20;99.90;;;;;;5066666;28;20036;-74
2022/12/17 22:47:50;;;;;;;67.27;26.73;;;-2.30;99.90;;;;;;5078945;28;20043;-74
2022/12/17 22:50:16;;;;;;;92.43;35.57;;;-2.30;99.90;;;;;;5085806;28;20134;-74
2022/12/17 22:52:42;;;;;;;86.40;33.20;;;-2.40;99.90;;;;;;5086034;28;20051;-74
2022/12/17 22:55:09;;;;;;;87.30;34.67;;;-2.40;99.90;;;;;;5085395;28;20362;-74
2022/12/17 22:57:35;;;;;;;96.47;38.20;;;-2.40;99.90;;;;;;5061658;28;20050;-74
2022/12/17 23:00:04;;;;;;;93.93;35.30;;;-2.50;99.90;;;;;;5085648;28;20454;-74
2022/12/17 23:02:30;;;;;;;83.93;33.10;;;-2.50;99.90;;;;;;5085432;28;20032;-73
2022/12/17 23:04:56;;;;;;;78.60;31.80;;;-2.60;99.90;;;;;;5068020;28;20039;-74
2022/12/17 23:07:23;;;;;;;74.57;30.17;;;-2.60;99.90;;;;;;5078443;28;20044;-74
2022/12/17 23:09:49;;;;;;;72.37;30.37;;;-2.70;99.90;;;;;;5085466;28;20028;-74
2022/12/17 23:15:00;;;;;;;71.30;28.07;;;-2.80;99.90;;;;;;5085255;28;20028;-73
2022/12/17 23:17:26;;;;;;;82.67;35.13;;;-2.90;99.90;;;;;;5077807;28;20494;-74
2022/12/17 23:19:53;;;;;;;75.07;32.13;;;-3.00;99.90;;;;;;5057728;28;20055;-73
2022/12/17 23:22:19;;;;;;;75.20;31.93;;;-3.00;99.90;;;;;;5069022;28;20051;-74
2022/12/17 23:24:48;;;;;;;72.70;30.87;;;-3.10;99.90;;;;;;5048383;28;20040;-73
2022/12/17 23:27:15;;;;;;;74.30;32.63;;;-3.20;99.90;;;;;;5077637;28;20039;-74
2022/12/17 23:29:41;;;;;;;71.47;32.00;;;-3.30;99.90;;;;;;5086195;28;20043;-74
2022/12/17 23:32:08;;;;;;;60.33;28.37;;;-3.40;99.90;;;;;;5082898;28;20048;-74
2022/12/17 23:34:34;;;;;;;50.27;23.93;;;-3.40;99.90;;;;;;5086362;28;20403;-73
2022/12/17 23:37:00;;;;;;;51.97;25.00;;;-3.40;99.90;;;;;;5080903;28;20051;-74
2022/12/17 23:39:27;;;;;;;57.70;26.40;;;-3.50;99.90;;;;;;5071999;28;20522;-74
2022/12/17 23:41:54;;;;;;;67.00;28.73;;;-3.50;99.90;;;;;;5088632;28;20036;-73
2022/12/17 23:44:20;;;;;;;68.27;29.40;;;-3.60;99.90;;;;;;5085904;28;20354;-73
2022/12/17 23:46:48;;;;;;;64.20;30.37;;;-3.60;99.90;;;;;;5079124;28;20032;-73
2022/12/17 23:49:14;;;;;;;62.97;29.37;;;-3.60;99.90;;;;;;5085871;28;20047;-73
2022/12/17 23:51:40;;;;;;;63.77;29.83;;;-3.70;99.90;;;;;;5068778;28;20051;-74
2022/12/17 23:54:07;;;;;;;71.97;35.27;;;-3.80;99.90;;;;;;5068096;28;20059;-73
2022/12/17 23:56:35;;;;;;;76.90;34.10;;;-3.80;99.90;;;;;;5063656;28;20055;-73
2022/12/17 23:59:02;;;;;;;65.70;29.47;;;-3.80;99.90;;;;;;5049912;28;20051;-74
